METAR stanice u blizini

 

LYBE - Beograd / Surčin, Srbija
Ažurirano: 16/09/2021 22:30
Vedro
Vedro
 Pravac vetra JZ
Vetar: JZ 9 km/h
Temperatura: 24°C
Tačka rose: 15°C
Vlažnost: 57%
Pritisak: 1015 hPa
Pregled: Vedro
Vidljivost: greater than 10 km
2021/09/16 20:30 LYBE 162030Z 22005KT 180V240 CAVOK 24/15 Q1015 NOSIG
LYBT - Beograd / Batajnica, Srbija
Ažurirano: 16/09/2021 22:30
Vedro
Vedro
 Pravac vetra varies
Vetar: varies 2 km/h
Temperatura: 21°C
Tačka rose: 15°C
Vlažnost: 69%
Pritisak: 1014 hPa
Pregled: Vedro
Vidljivost: greater than 10 km
2021/09/16 20:30 LYBT 162030Z VRB01KT CAVOK 21/15 Q1014 NOSIG
LYVR - Vršac, Srbija
Ažurirano: 16/09/2021 22:30
Vedro
Vedro
 Pravac vetra J
Vetar: J 6 km/h
Temperatura: 25°C
Tačka rose: 13°C
Vlažnost: 47%
Pritisak: 1014 hPa
Pregled: Vedro
Vidljivost: greater than 10 km
2021/09/16 20:30 LYVR 162030Z AUTO 17003KT CAVOK 25/13 Q1014
 
LYKV - Lađevci, Srbija
Ažurirano: 16/09/2021 22:30
Vedro
Vedro
 Pravac vetra varies
Vetar: varies 2 km/h
Temperatura: 23°C
Tačka rose: 14°C
Vlažnost: 57%
Pritisak: 1016 hPa
Pregled: Vedro
Vidljivost: greater than 10 km
2021/09/16 20:30 LYKV 162030Z VRB01KT CAVOK 23/14 Q1016 NOSIG
LYNI - Niš, Srbija
Ažurirano: 16/09/2021 22:30
Vedro
Vedro
 Pravac vetra I
Vetar: I 6 km/h
Temperatura: 22°C
Tačka rose: 11°C
Vlažnost: 50%
Pritisak: 1016 hPa
Pregled: Vedro
Vidljivost: greater than 10 km
2021/09/16 20:30 LYNI 162030Z 09003KT 070V140 CAVOK 22/11 Q1016 NOSIG
BKPR - Priština, Srbija
Ažurirano: 16/09/2021 22:30
Mostly Cloudy
Mostly Cloudy
 Pravac vetra S
Vetar: S 11 km/h
Temperatura: 21°C
Tačka rose: 13°C
Vlažnost: 60%
Pritisak: 1019 hPa
Oblaci: Mostly Cloudy
Vidljivost: 10 km
Cloud details: Partly Cloudy 1524 m
Mostly Cloudy 3048 m
2021/09/16 20:30 BKPR 162030Z 01006KT 9999 SCT050 BKN100 21/13 Q1019 NOSIG
 
LHPP - Pecs / Pogany, Hungary
Ažurirano: 16/09/2021 22:15
Vedro
Vedro
 Pravac vetra ZJZ
Vetar: ZJZ 15 km/h
Temperatura: 21°C
Tačka rose: 13°C
Vlažnost: 60%
Pritisak: 1014 hPa
Pregled: Vedro
Vidljivost: greater than 10 km
2021/09/16 20:15 LHPP 162015Z AUTO 25008KT CAVOK 21/13 Q1014
LHUD - Szeged, Hungary
Ažurirano: 04/07/2019 01:45
NOT Current
Vedro
Vedro
 Pravac vetra S
Vetar: S 7 km/h
Temperatura: 18°C
Tačka rose: 13°C
Vlažnost: 73%
Pritisak: 1019 hPa
Pregled: Vedro
Vidljivost: greater than 10 km
2019/07/03 23:45 LHUD 032345Z 35004KT CAVOK 18/13 Q1019
LRTR - Timisoara, Romania
Ažurirano: 16/09/2021 22:30
Vedro
Vedro
 Pravac vetra J
Vetar: J 6 km/h
Temperatura: 23°C
Tačka rose: 15°C
Vlažnost: 61%
Pritisak: 1014 hPa
Pregled: Vedro
Vidljivost: greater than 10 km
2021/09/16 20:30 LRTR 162030Z 17003KT CAVOK 23/15 Q1014
 
LRCV - Craiova, Romania
Ažurirano: 16/09/2021 22:30
Vedro
Vedro
 Pravac vetra Z
Vetar: Z 9 km/h
Temperatura: 25°C
Tačka rose: 8°C
Vlažnost: 34%
Pritisak: 1015 hPa
Pregled: Vedro
Vidljivost: greater than 10 km
2021/09/16 20:30 LRCV 162030Z 27005KT CAVOK 25/08 Q1015
LBSF - Sofia, Bulgaria
Ažurirano: 16/09/2021 22:30
Few Clouds
Few Clouds
 Pravac vetra I
Vetar: I 9 km/h
Temperatura: 19°C
Tačka rose: 11°C
Vlažnost: 60%
Pritisak: 1018 hPa
Oblaci: Few Clouds
Vidljivost: 10 km
Cloud details: Few Clouds 2530 m
2021/09/16 20:30 LBSF 162030Z 10005KT 9999 FEW083 19/11 Q1018 NOSIG
LWSK - Skoplje, Makedonija
Ažurirano: 16/09/2021 22:30
Partly Cloudy
Partly Cloudy
 Pravac vetra I
Vetar: I 6 km/h
Temperatura: 24°C
Tačka rose: 10°C
Vlažnost: 41%
Pritisak: 1017 hPa
Oblaci: Partly Cloudy
Vidljivost: 10 km
Cloud details: Partly Cloudy 3048 m
2021/09/16 20:30 LWSK 162030Z 10003KT 9999 SCT100 24/10 Q1017 NOSIG
 
LYPG - Podgorica, Crna Gora
Ažurirano: 16/09/2021 22:30
Partly Cloudy
Partly Cloudy
 Pravac vetra SI
Vetar: SI 7 km/h
Temperatura: 22°C
Tačka rose: 17°C
Vlažnost: 73%
Pritisak: 1017 hPa
Oblaci: Partly Cloudy
Vidljivost: 10 km
Cloud details: Few Clouds 1219 m
Partly Cloudy 2743 m
2021/09/16 20:30 LYPG 162030Z 04004KT 9999 FEW040 SCT090 22/17 Q1017 NOSIG
LQSA - Sarajevo, Bosna i Hercegovina
Ažurirano: 16/09/2021 22:30
Vedro
Vedro
 Pravac vetra varies
Vetar: varies 4 km/h
Temperatura: 17°C
Tačka rose: 17°C
Vlažnost: 100%
Pritisak: 1018 hPa
Pregled: Vedro
Vidljivost: greater than 10 km
2021/09/16 20:30 LQSA 162030Z VRB02KT CAVOK 17/17 Q1018
LDOS - Osijek, Hrvatksa
Ažurirano: 16/09/2021 22:30
Partly Cloudy
Partly Cloudy
 Pravac vetra JJZ
Vetar: JJZ 11 km/h
Temperatura: 21°C
Tačka rose: 13°C
Vlažnost: 60%
Pritisak: 1014 hPa
Oblaci: Partly Cloudy
Vidljivost: 10 km
Cloud details: Partly Cloudy 1372 m
2021/09/16 20:30 LDOS 162030Z 20006KT 9999 SCT045 21/13 Q1014